createdAt,value
2023-05-02T00:01:09.469Z,13.15
2023-05-02T00:03:37.783Z,13.11
2023-05-02T00:06:06.266Z,13.09
2023-05-02T00:08:36.069Z,13.10
2023-05-02T00:11:04.356Z,13.11
2023-05-02T00:13:32.462Z,13.12
2023-05-02T00:16:00.787Z,13.14
2023-05-02T00:18:28.901Z,13.15
2023-05-02T00:20:57.633Z,13.12
2023-05-02T00:23:25.876Z,13.08
2023-05-02T00:25:55.455Z,13.06
2023-05-02T00:28:23.526Z,12.98
2023-05-02T00:30:51.826Z,12.95
2023-05-02T00:33:20.028Z,12.92
2023-05-02T00:35:48.247Z,12.95
2023-05-02T00:38:16.502Z,12.90
2023-05-02T00:40:46.882Z,12.91
2023-05-02T00:43:17.260Z,12.93
2023-05-02T00:45:46.742Z,12.93
2023-05-02T00:48:15.253Z,12.87
2023-05-02T00:50:44.626Z,12.94
2023-05-02T00:53:12.878Z,12.99
2023-05-02T00:55:41.042Z,13.04
2023-05-02T00:58:13.205Z,13.00
2023-05-02T01:01:00.550Z,13.05
2023-05-02T01:03:41.634Z,13.08
2023-05-02T01:06:20.973Z,13.11
2023-05-02T01:09:01.551Z,13.11
2023-05-02T01:11:39.008Z,13.10
2023-05-02T01:14:12.683Z,13.05
2023-05-02T01:16:46.562Z,13.08
2023-05-02T01:19:23.428Z,13.11
2023-05-02T01:21:55.111Z,13.11
2023-05-02T01:24:27.980Z,13.14
2023-05-02T01:27:09.150Z,13.18
2023-05-02T01:29:40.360Z,13.13
2023-05-02T01:32:10.438Z,13.15
2023-05-02T01:34:41.837Z,13.14
2023-05-02T01:37:14.122Z,13.12
2023-05-02T01:39:43.965Z,13.13
2023-05-02T01:42:13.670Z,13.13
2023-05-02T01:44:44.767Z,13.06
2023-05-02T01:47:13.994Z,12.99
2023-05-02T01:49:44.006Z,12.99
2023-05-02T01:52:14.318Z,12.97
2023-05-02T01:54:45.279Z,12.96
2023-05-02T01:57:14.341Z,13.00
2023-05-02T01:59:45.572Z,13.02
2023-05-02T02:02:15.714Z,13.00
2023-05-02T02:04:45.332Z,13.02
2023-05-02T02:07:15.450Z,12.98
2023-05-02T02:09:43.682Z,12.97
2023-05-02T02:12:15.677Z,12.97
2023-05-02T02:14:57.457Z,12.94
2023-05-02T02:17:29.263Z,12.89
2023-05-02T02:19:59.256Z,12.90
2023-05-02T02:22:29.580Z,12.89
2023-05-02T02:25:00.189Z,12.88
2023-05-02T02:27:28.546Z,12.87
2023-05-02T02:29:58.508Z,12.85
2023-05-02T02:32:26.789Z,12.82
2023-05-02T02:34:55.475Z,12.79
2023-05-02T02:37:33.917Z,12.75
2023-05-02T02:40:08.272Z,12.78
2023-05-02T02:42:43.583Z,12.79
2023-05-02T02:45:26.360Z,12.78
2023-05-02T02:48:04.257Z,12.77
2023-05-02T02:50:37.791Z,12.78
2023-05-02T02:53:10.325Z,12.74
2023-05-02T02:55:46.945Z,12.68
2023-05-02T02:58:23.686Z,12.65
2023-05-02T03:00:54.244Z,12.68
2023-05-02T03:03:29.703Z,12.68
2023-05-02T03:05:58.047Z,12.70
2023-05-02T03:08:26.225Z,12.75
2023-05-02T03:10:54.439Z,12.77
2023-05-02T03:13:22.527Z,12.71
2023-05-02T03:16:30.981Z,12.73
2023-05-02T03:18:59.253Z,12.70
2023-05-02T03:21:27.572Z,12.69
2023-05-02T03:23:55.817Z,12.66
2023-05-02T03:26:24.026Z,12.60
2023-05-02T03:28:52.209Z,12.65
2023-05-02T03:31:20.613Z,12.67
2023-05-02T03:33:50.386Z,12.69
2023-05-02T03:36:18.596Z,12.70
2023-05-02T03:38:47.166Z,12.74
2023-05-02T03:41:15.302Z,12.77
2023-05-02T03:43:43.560Z,12.72
2023-05-02T03:46:12.359Z,12.73
2023-05-02T03:48:40.665Z,12.78
2023-05-02T03:51:10.601Z,12.79
2023-05-02T03:53:39.013Z,12.77
2023-05-02T03:56:08.631Z,12.79
2023-05-02T03:58:37.714Z,12.70
2023-05-02T04:01:06.216Z,12.72
2023-05-02T04:03:34.504Z,12.72
2023-05-02T04:06:03.280Z,12.74
2023-05-02T04:08:33.215Z,12.75
2023-05-02T04:11:01.435Z,12.73
2023-05-02T04:13:30.440Z,12.75
2023-05-02T04:15:58.704Z,12.73
2023-05-02T04:18:26.859Z,12.76
2023-05-02T04:20:55.053Z,12.77
2023-05-02T04:23:23.207Z,12.79
2023-05-02T04:25:56.584Z,12.76
2023-05-02T04:28:25.253Z,12.74
2023-05-02T04:30:53.884Z,12.72
2023-05-02T04:33:22.049Z,12.79
2023-05-02T04:35:50.287Z,12.79
2023-05-02T04:38:18.489Z,12.77
2023-05-02T04:40:46.769Z,12.80
2023-05-02T04:43:16.319Z,12.74
2023-05-02T04:45:44.473Z,12.78
2023-05-02T04:48:12.893Z,12.81
2023-05-02T04:50:41.121Z,12.80
2023-05-02T04:53:09.330Z,12.81
2023-05-02T04:55:37.507Z,12.72
2023-05-02T04:58:05.830Z,12.78
2023-05-02T05:00:35.458Z,12.78
2023-05-02T05:03:03.728Z,12.81
2023-05-02T05:05:32.008Z,12.78
2023-05-02T05:08:00.412Z,12.77
2023-05-02T05:10:31.659Z,12.83
2023-05-02T05:13:00.231Z,12.85
2023-05-02T05:15:29.197Z,12.87
2023-05-02T05:17:58.753Z,12.88
2023-05-02T05:20:26.946Z,12.86
2023-05-02T05:22:55.118Z,12.85
2023-05-02T05:25:23.459Z,12.87
2023-05-02T05:27:52.674Z,12.88
2023-05-02T05:30:21.030Z,12.88
2023-05-02T05:32:49.181Z,12.88
2023-05-02T05:35:19.087Z,12.88
2023-05-02T05:37:47.310Z,12.86
2023-05-02T05:40:16.981Z,12.84
2023-05-02T05:42:45.279Z,12.87
2023-05-02T05:45:13.646Z,12.91
2023-05-02T05:47:41.873Z,12.90
2023-05-02T05:50:11.101Z,12.95
2023-05-02T05:52:41.195Z,12.96
2023-05-02T05:55:10.284Z,12.93
2023-05-02T05:57:38.605Z,12.95
2023-05-02T06:00:08.984Z,12.93
2023-05-02T06:02:37.318Z,12.97
2023-05-02T06:05:05.860Z,12.98
2023-05-02T06:07:34.063Z,13.01
2023-05-02T06:10:03.719Z,13.05
2023-05-02T06:12:32.576Z,13.12
2023-05-02T06:15:00.813Z,13.08
2023-05-02T06:17:29.051Z,13.12
2023-05-02T06:19:58.090Z,13.14
2023-05-02T06:22:26.624Z,13.18
2023-05-02T06:24:54.931Z,13.23
2023-05-02T06:27:24.503Z,13.22
2023-05-02T06:29:53.230Z,13.19
2023-05-02T06:32:21.805Z,13.24
2023-05-02T06:34:49.989Z,13.28
2023-05-02T06:37:18.086Z,13.37
2023-05-02T06:39:46.227Z,13.44
2023-05-02T06:42:14.490Z,13.50
2023-05-02T06:44:44.400Z,13.55
2023-05-02T06:47:12.509Z,13.58
2023-05-02T06:49:40.916Z,13.57
2023-05-02T06:52:14.826Z,13.64
2023-05-02T06:54:43.213Z,13.66
2023-05-02T06:57:11.681Z,13.65
2023-05-02T06:59:40.041Z,13.58
2023-05-02T07:02:09.623Z,13.57
2023-05-02T07:04:37.864Z,13.59
2023-05-02T07:07:06.342Z,13.57
2023-05-02T07:09:34.612Z,13.57
2023-05-02T07:12:06.027Z,13.63
2023-05-02T07:14:35.108Z,13.71
2023-05-02T07:17:03.318Z,13.74
2023-05-02T07:19:33.398Z,13.80
2023-05-02T07:22:01.540Z,13.87
2023-05-02T07:24:29.766Z,13.85
2023-05-02T07:26:57.954Z,13.85
2023-05-02T07:29:26.270Z,13.80
2023-05-02T07:31:54.443Z,13.84
2023-05-02T07:34:22.676Z,13.86
2023-05-02T07:36:52.221Z,13.78
2023-05-02T07:39:20.774Z,13.77
2023-05-02T07:41:48.918Z,13.71
2023-05-02T07:44:17.105Z,13.66
2023-05-02T07:46:45.373Z,13.72
2023-05-02T07:49:14.205Z,13.73
2023-05-02T07:51:42.689Z,13.78
2023-05-02T07:54:18.631Z,13.79
2023-05-02T07:56:47.448Z,13.84
2023-05-02T07:59:15.744Z,13.85
2023-05-02T08:01:44.358Z,13.86
2023-05-02T08:04:13.389Z,13.89
2023-05-02T08:06:41.738Z,13.91
2023-05-02T08:09:10.494Z,13.92
2023-05-02T08:11:40.191Z,13.92
2023-05-02T08:14:08.413Z,13.88
2023-05-02T08:16:36.600Z,13.91
2023-05-02T08:19:04.965Z,13.89
2023-05-02T08:21:33.426Z,13.88
2023-05-02T08:24:01.591Z,13.91
2023-05-02T08:26:29.722Z,13.93
2023-05-02T08:28:59.231Z,13.98
2023-05-02T08:31:27.399Z,13.97
2023-05-02T08:33:56.262Z,14.01
2023-05-02T08:36:24.507Z,14.06
2023-05-02T08:38:52.706Z,14.15
2023-05-02T08:41:21.609Z,14.24
2023-05-02T08:43:49.781Z,14.31
2023-05-02T08:46:19.376Z,14.36
2023-05-02T08:48:49.008Z,14.46
2023-05-02T08:53:48.133Z,14.73
2023-05-02T08:56:16.328Z,14.89
2023-05-02T08:58:44.422Z,14.99
2023-05-02T09:01:17.804Z,15.09
2023-05-02T09:03:49.312Z,15.12
2023-05-02T09:06:19.021Z,15.14
2023-05-02T09:08:49.606Z,15.23
2023-05-02T09:11:18.512Z,15.36
2023-05-02T09:13:48.207Z,15.38
2023-05-02T09:16:22.805Z,15.39
2023-05-02T09:18:54.011Z,15.39
2023-05-02T09:21:23.565Z,15.42
2023-05-02T09:23:53.471Z,15.50
2023-05-02T09:26:23.336Z,15.67
2023-05-02T09:28:53.145Z,15.79
2023-05-02T09:34:10.144Z,15.88
2023-05-02T09:36:42.171Z,15.94
2023-05-02T09:39:12.091Z,15.93
2023-05-02T09:41:44.128Z,15.87
2023-05-02T09:44:13.212Z,15.92
2023-05-02T09:46:42.873Z,15.87
2023-05-02T09:49:14.902Z,15.80
2023-05-02T09:51:44.237Z,15.75
2023-05-02T09:54:12.652Z,15.70
2023-05-02T09:56:57.612Z,15.60
2023-05-02T09:59:26.399Z,15.58
2023-05-02T10:01:58.317Z,15.48
2023-05-02T10:04:29.078Z,15.52
2023-05-02T10:06:57.510Z,15.54
2023-05-02T10:09:27.615Z,15.68
2023-05-02T10:11:58.288Z,15.84
2023-05-02T10:14:29.497Z,15.97
2023-05-02T10:17:01.640Z,16.04
2023-05-02T10:19:46.629Z,16.01
2023-05-02T10:22:15.312Z,16.26
2023-05-02T10:24:44.322Z,16.37
2023-05-02T10:27:12.861Z,16.47
2023-05-02T10:29:43.487Z,16.49
2023-05-02T10:32:12.903Z,16.56
2023-05-02T10:34:43.220Z,16.63
2023-05-02T10:37:12.362Z,16.65
2023-05-02T10:39:42.466Z,16.57
2023-05-02T10:42:11.449Z,16.76
2023-05-02T10:44:41.141Z,16.89
2023-05-02T10:47:22.395Z,16.98
2023-05-02T10:49:56.887Z,17.00
2023-05-02T10:52:30.405Z,17.17
2023-05-02T10:55:19.943Z,17.26
2023-05-02T10:58:25.020Z,17.25
2023-05-02T11:00:53.298Z,17.19
2023-05-02T11:03:56.505Z,17.18
2023-05-02T11:06:27.609Z,17.00
2023-05-02T11:09:37.491Z,16.70
2023-05-02T11:12:06.589Z,16.57
2023-05-02T11:14:47.663Z,16.52
2023-05-02T11:17:16.720Z,16.65
2023-05-02T11:20:24.847Z,16.75
2023-05-02T11:22:56.267Z,16.81
2023-05-02T11:25:34.979Z,16.58
2023-05-02T11:28:04.003Z,16.50
2023-05-02T11:30:44.054Z,16.36
2023-05-02T11:33:17.394Z,16.46
2023-05-02T11:35:50.341Z,16.57
2023-05-02T11:38:21.797Z,16.60
2023-05-02T11:40:57.110Z,16.43
2023-05-02T11:43:28.240Z,16.09
2023-05-02T11:46:00.145Z,15.98
2023-05-02T11:48:29.164Z,15.98
2023-05-02T11:51:02.470Z,15.97
2023-05-02T11:53:33.396Z,15.97
2023-05-02T11:56:02.687Z,16.07
2023-05-02T11:58:32.967Z,16.08
2023-05-02T12:01:13.284Z,16.31
2023-05-02T12:03:42.379Z,16.49
2023-05-02T12:06:12.978Z,16.60
2023-05-02T12:08:44.766Z,16.72
2023-05-02T12:11:15.634Z,16.97
2023-05-02T12:13:48.294Z,17.25
2023-05-02T12:16:17.270Z,17.53
2023-05-02T12:18:46.352Z,17.70
2023-05-02T12:21:14.687Z,17.76
2023-05-02T12:23:44.630Z,17.80
2023-05-02T12:26:19.671Z,17.83
2023-05-02T12:28:52.298Z,17.83
2023-05-02T12:31:20.947Z,17.88
2023-05-02T12:33:50.891Z,18.01
2023-05-02T12:36:19.713Z,18.08
2023-05-02T12:38:53.742Z,18.33
2023-05-02T12:41:33.131Z,18.45
2023-05-02T12:44:01.917Z,18.60
2023-05-02T12:46:31.585Z,18.71
2023-05-02T12:49:04.032Z,18.79
2023-05-02T12:51:33.167Z,18.69
2023-05-02T12:54:02.741Z,18.73
2023-05-02T12:56:33.229Z,18.77
2023-05-02T12:59:05.174Z,18.75
2023-05-02T13:01:35.461Z,18.65
2023-05-02T13:04:04.201Z,18.73
2023-05-02T13:06:32.621Z,18.58
2023-05-02T13:09:02.684Z,18.65
2023-05-02T13:11:30.950Z,18.69
2023-05-02T13:14:00.322Z,18.64
2023-05-02T13:16:30.406Z,18.56
2023-05-02T13:18:58.729Z,18.46
2023-05-02T13:21:26.972Z,18.41
2023-05-02T13:23:55.785Z,18.49
2023-05-02T13:26:28.777Z,18.50
2023-05-02T13:28:57.734Z,18.64
2023-05-02T13:31:26.011Z,18.74
2023-05-02T13:33:54.289Z,18.75
2023-05-02T13:36:22.523Z,18.73
2023-05-02T13:38:50.756Z,18.78
2023-05-02T13:41:20.324Z,18.82
2023-05-02T13:43:50.043Z,18.91
2023-05-02T13:46:18.268Z,18.95
2023-05-02T13:48:46.573Z,18.99
2023-05-02T13:51:15.000Z,19.05
2023-05-02T13:53:43.150Z,19.13
2023-05-02T13:56:11.393Z,19.14
2023-05-02T13:58:40.001Z,19.14
2023-05-02T14:01:09.681Z,19.09
2023-05-02T14:03:38.314Z,18.90
2023-05-02T14:06:06.805Z,18.94
2023-05-02T14:08:35.059Z,18.87
2023-05-02T14:11:05.808Z,18.86
2023-05-02T14:13:35.406Z,18.86
2023-05-02T14:16:03.655Z,18.89
2023-05-02T14:18:33.434Z,18.88
2023-05-02T14:21:01.697Z,18.94
2023-05-02T14:23:30.161Z,19.00
2023-05-02T14:25:58.457Z,19.06
2023-05-02T14:28:27.640Z,19.12
2023-05-02T14:30:55.934Z,19.21
2023-05-02T14:33:24.096Z,19.23
2023-05-02T14:35:53.839Z,19.07
2023-05-02T14:38:27.820Z,19.27
2023-05-02T14:40:56.322Z,19.39
2023-05-02T14:43:24.617Z,19.41
2023-05-02T14:45:52.828Z,19.44
2023-05-02T14:48:31.926Z,19.44
2023-05-02T14:51:04.823Z,19.31
2023-05-02T14:53:33.030Z,19.25
2023-05-02T14:56:01.949Z,19.20
2023-05-02T14:58:30.199Z,19.14
2023-05-02T15:00:58.470Z,19.09
2023-05-02T15:03:26.752Z,19.01
2023-05-02T15:05:55.151Z,18.84
2023-05-02T15:08:25.369Z,18.73
2023-05-02T15:10:55.881Z,18.62
2023-05-02T15:13:24.643Z,18.59
2023-05-02T15:15:54.338Z,18.56
2023-05-02T15:18:22.861Z,18.46
2023-05-02T15:20:51.030Z,18.41
2023-05-02T15:23:19.973Z,18.49
2023-05-02T15:25:50.138Z,18.50
2023-05-02T15:28:18.306Z,18.49
2023-05-02T15:30:46.597Z,18.46
2023-05-02T15:33:14.809Z,18.49
2023-05-02T15:35:53.509Z,18.57
2023-05-02T15:38:21.812Z,18.61
2023-05-02T15:40:59.586Z,18.46
2023-05-02T15:43:28.506Z,18.49
2023-05-02T15:45:58.421Z,18.34
2023-05-02T15:48:29.416Z,18.36
2023-05-02T15:50:57.709Z,18.36
2023-05-02T15:53:27.304Z,18.36
2023-05-02T15:55:56.060Z,18.41
2023-05-02T15:58:25.761Z,18.38
2023-05-02T16:00:54.405Z,18.36
2023-05-02T16:03:22.706Z,18.39
2023-05-02T16:05:53.871Z,18.39
2023-05-02T16:08:22.287Z,18.30
2023-05-02T16:10:50.538Z,18.30
2023-05-02T16:13:18.811Z,18.25
2023-05-02T16:15:49.176Z,18.30
2023-05-02T16:18:17.436Z,18.32
2023-05-02T16:20:47.792Z,18.30
2023-05-02T16:23:16.027Z,18.27
2023-05-02T16:25:44.226Z,18.22
2023-05-02T16:28:12.789Z,18.11
2023-05-02T16:30:41.682Z,18.10
2023-05-02T16:33:11.382Z,18.08
2023-05-02T16:35:39.564Z,18.04
2023-05-02T16:38:07.806Z,18.02
2023-05-02T16:40:37.052Z,18.02
2023-05-02T16:43:05.422Z,17.98
2023-05-02T16:45:33.595Z,18.02
2023-05-02T16:48:02.572Z,18.02
2023-05-02T16:50:32.124Z,18.07
2023-05-02T16:53:00.318Z,18.08
2023-05-02T16:55:28.598Z,17.96
2023-05-02T16:57:56.685Z,17.93
2023-05-02T17:00:27.045Z,17.73
2023-05-02T17:02:57.177Z,17.69
2023-05-02T17:05:26.262Z,17.57
2023-05-02T17:07:56.275Z,17.63
2023-05-02T17:10:24.623Z,17.56
2023-05-02T17:12:54.384Z,17.50
2023-05-02T17:15:24.063Z,17.45
2023-05-02T17:17:52.361Z,17.37
2023-05-02T17:20:21.051Z,17.40
2023-05-02T17:22:49.340Z,17.30
2023-05-02T17:25:19.350Z,17.40
2023-05-02T17:27:47.616Z,17.34
2023-05-02T17:30:16.273Z,17.38
2023-05-02T17:32:45.192Z,17.19
2023-05-02T17:35:14.288Z,17.17
2023-05-02T17:37:42.505Z,17.08
2023-05-02T17:40:12.450Z,17.15
2023-05-02T17:42:43.920Z,17.03
2023-05-02T17:45:12.287Z,16.89
2023-05-02T17:47:40.619Z,16.79
2023-05-02T17:50:09.982Z,16.78
2023-05-02T17:52:38.862Z,16.66
2023-05-02T17:55:08.469Z,16.52
2023-05-02T17:57:36.832Z,16.35
2023-05-02T18:00:08.298Z,16.30
2023-05-02T18:02:38.320Z,16.12
2023-05-02T18:05:07.298Z,16.04
2023-05-02T18:07:35.475Z,16.02
2023-05-02T18:10:05.407Z,15.93
2023-05-02T18:12:33.812Z,15.89
2023-05-02T18:15:05.401Z,15.79
2023-05-02T18:17:35.475Z,15.77
2023-05-02T18:20:06.392Z,15.79
2023-05-02T18:22:34.977Z,15.74
2023-05-02T18:25:03.592Z,15.73
2023-05-02T18:27:32.140Z,15.60
2023-05-02T18:30:00.302Z,15.44
2023-05-02T18:32:28.500Z,15.34
2023-05-02T18:34:58.149Z,15.34
2023-05-02T18:37:31.522Z,15.27
2023-05-02T18:39:59.939Z,15.32
2023-05-02T18:42:28.280Z,15.23
2023-05-02T18:44:56.417Z,15.16
2023-05-02T18:47:25.287Z,15.11
2023-05-02T18:49:56.355Z,15.04
2023-05-02T18:52:26.811Z,15.01
2023-05-02T18:54:55.496Z,14.89
2023-05-02T18:57:23.792Z,14.98
2023-05-02T18:59:52.468Z,14.96
2023-05-02T19:02:22.070Z,14.99
2023-05-02T19:04:51.259Z,14.97
2023-05-02T19:07:19.467Z,14.88
2023-05-02T19:09:49.122Z,14.85
2023-05-02T19:12:17.231Z,14.86
2023-05-02T19:14:46.020Z,14.71
2023-05-02T19:17:14.171Z,14.67
2023-05-02T19:19:42.752Z,14.64
2023-05-02T19:22:11.040Z,14.62
2023-05-02T19:24:39.166Z,14.56
2023-05-02T19:27:09.809Z,14.47
2023-05-02T19:29:38.827Z,14.42
2023-05-02T19:32:07.119Z,14.37
2023-05-02T19:34:36.641Z,14.34
2023-05-02T19:37:05.345Z,14.28
2023-05-02T19:39:33.561Z,14.20
2023-05-02T19:42:01.797Z,14.18
2023-05-02T19:44:31.690Z,14.14
2023-05-02T19:46:59.910Z,14.10
2023-05-02T19:49:28.120Z,14.01
2023-05-02T19:51:56.313Z,14.01
2023-05-02T19:54:25.833Z,14.07
2023-05-02T19:56:54.472Z,14.06
2023-05-02T19:59:22.618Z,14.08
2023-05-02T20:01:52.349Z,14.09
2023-05-02T20:04:21.098Z,14.00
2023-05-02T20:06:49.749Z,14.01
2023-05-02T20:09:18.500Z,14.04
2023-05-02T20:11:46.658Z,14.07
2023-05-02T20:14:15.732Z,14.11
2023-05-02T20:16:44.023Z,14.12
2023-05-02T20:19:16.480Z,14.05
2023-05-02T20:21:44.872Z,14.07
2023-05-02T20:24:13.033Z,14.09
2023-05-02T20:26:41.114Z,14.01
2023-05-02T20:29:10.748Z,13.97
2023-05-02T20:31:40.106Z,13.95
2023-05-02T20:34:08.334Z,13.91
2023-05-02T20:36:38.517Z,13.92
2023-05-02T20:39:09.560Z,13.89
2023-05-02T20:41:38.456Z,13.86
2023-05-02T20:44:06.721Z,13.81
2023-05-02T20:46:35.112Z,13.84
2023-05-02T20:49:03.427Z,13.76
2023-05-02T20:51:31.692Z,13.75
2023-05-02T20:54:01.258Z,13.72
2023-05-02T20:56:29.448Z,13.71
2023-05-02T20:58:58.271Z,13.69
2023-05-02T21:01:27.048Z,13.74
2023-05-02T21:03:57.263Z,13.79
2023-05-02T21:06:27.611Z,13.80
2023-05-02T21:08:56.743Z,13.82
2023-05-02T21:11:26.607Z,13.85
2023-05-02T21:13:54.827Z,13.87
2023-05-02T21:16:23.282Z,13.86
2023-05-02T21:18:55.941Z,13.87
2023-05-02T21:21:24.271Z,13.90
2023-05-02T21:23:53.861Z,13.86
2023-05-02T21:26:22.283Z,13.80
2023-05-02T21:28:51.980Z,13.79
2023-05-02T21:31:20.169Z,13.76
2023-05-02T21:33:48.339Z,13.73
2023-05-02T21:36:16.549Z,13.67
2023-05-02T21:38:44.810Z,13.54
2023-05-02T21:41:13.146Z,13.62
2023-05-02T21:43:41.682Z,13.63
2023-05-02T21:46:13.451Z,13.60
2023-05-02T21:48:41.728Z,13.64
2023-05-02T21:51:11.462Z,13.64
2023-05-02T21:53:39.859Z,13.63
2023-05-02T21:56:09.131Z,13.64
2023-05-02T21:58:37.560Z,13.65
2023-05-02T22:01:05.914Z,13.66
2023-05-02T22:03:36.843Z,13.67
2023-05-02T22:06:06.702Z,13.69
2023-05-02T22:08:35.798Z,13.72
2023-05-02T22:11:08.123Z,13.72
2023-05-02T22:13:36.935Z,13.67
2023-05-02T22:16:05.706Z,13.63
2023-05-02T22:18:35.259Z,13.66
2023-05-02T22:21:03.868Z,13.61
2023-05-02T22:23:32.196Z,13.57
2023-05-02T22:26:00.508Z,13.58
2023-05-02T22:28:28.821Z,13.61
2023-05-02T22:30:57.216Z,13.57
2023-05-02T22:33:25.815Z,13.52
2023-05-02T22:35:57.036Z,13.47
2023-05-02T22:38:25.291Z,13.51
2023-05-02T22:40:53.458Z,13.51
2023-05-02T22:43:21.967Z,13.53
2023-05-02T22:45:51.355Z,13.51
2023-05-02T22:48:19.769Z,13.53
2023-05-02T22:50:48.684Z,13.51
2023-05-02T22:53:21.683Z,13.52
2023-05-02T22:55:49.886Z,13.49
2023-05-02T22:58:18.004Z,13.50
2023-05-02T23:00:46.619Z,13.51
2023-05-02T23:03:15.097Z,13.47
2023-05-02T23:05:43.356Z,13.46
2023-05-02T23:08:11.500Z,13.41
2023-05-02T23:10:41.132Z,13.41
2023-05-02T23:13:09.294Z,13.36
2023-05-02T23:15:38.217Z,13.33
2023-05-02T23:18:07.113Z,13.33
2023-05-02T23:20:35.524Z,13.28
2023-05-02T23:23:05.544Z,13.26
2023-05-02T23:25:36.185Z,13.22
2023-05-02T23:28:06.444Z,13.21
2023-05-02T23:30:34.964Z,13.18
2023-05-02T23:33:03.204Z,13.16
2023-05-02T23:35:32.451Z,13.15
2023-05-02T23:38:02.082Z,13.11
2023-05-02T23:40:30.226Z,13.12
2023-05-02T23:42:58.549Z,13.14
2023-05-02T23:45:28.240Z,13.13
2023-05-02T23:47:56.511Z,13.10
2023-05-02T23:50:24.748Z,13.10
2023-05-02T23:52:53.031Z,13.15
2023-05-02T23:55:21.180Z,13.18
2023-05-02T23:57:49.442Z,13.17
